Time;durP1;ratioP1;P1;durP2;ratioP2;P2;SDS_P1;SDS_P2;PMS_P1;PMS_P2;Temp;Humidity;BMP_temperature;BMP_pressure;BME280_temperature;BME280_humidity;BME280_pressure;Samples;Min_cycle;Max_cycle;Signal;HPM_P1;HPM_P2
2022/04/25 00:00:56;;;;;;;;;;;9.80;99.90;;;;;;5154431;27;19915;-75
2022/04/25 00:03:21;;;;;;;;;;;9.80;99.90;;;;;;5157574;27;20001;-75
2022/04/25 00:05:47;;;;;;;;;;;9.80;99.90;;;;;;5158485;27;19907;-75
2022/04/25 00:08:12;;;;;;;;;;;9.70;99.90;;;;;;5157944;27;19911;-75
2022/04/25 00:10:38;;;;;;;;;;;9.70;99.90;;;;;;5158673;27;20335;-75
2022/04/25 00:13:03;;;;;;;;;;;9.70;99.90;;;;;;5158287;27;19907;-75
2022/04/25 00:15:29;;;;;;;;;;;9.70;99.90;;;;;;5158301;27;20280;-75
2022/04/25 00:17:55;;;;;;;;;;;9.60;99.90;;;;;;5158319;27;19959;-75
2022/04/25 00:20:21;;;;;;;;;;;9.60;99.90;;;;;;5139332;27;19907;-75
2022/04/25 00:22:46;;;;;;;;;;;9.60;99.90;;;;;;5158668;27;19908;-75
2022/04/25 00:25:12;;;;;;;;;;;9.60;99.90;;;;;;5157324;27;20390;-75
2022/04/25 00:27:38;;;;;;;;;;;9.60;99.90;;;;;;5158206;27;19907;-75
2022/04/25 00:30:04;;;;;;;;;;;9.60;99.90;;;;;;5157883;27;19907;-75
2022/04/25 00:32:30;;;;;;;;;;;9.60;99.90;;;;;;5157529;27;19914;-75
2022/04/25 00:34:55;;;;;;;;;;;9.50;99.90;;;;;;5158497;27;20279;-75
2022/04/25 00:37:21;;;;;;;;;;;9.50;99.90;;;;;;5157125;27;19932;-76
2022/04/25 00:39:47;;;;;;;;;;;9.50;99.90;;;;;;5158312;27;19997;-75
2022/04/25 00:42:12;;;;;;;;;;;9.50;99.90;;;;;;5157314;27;19912;-75
2022/04/25 00:44:38;;;;;;;;;;;9.50;99.90;;;;;;5158144;27;19915;-75
2022/04/25 00:47:04;;;;;;;;;;;9.50;99.90;;;;;;5157874;27;19907;-75
2022/04/25 00:49:30;;;;;;;;;;;9.50;99.90;;;;;;5157324;27;19907;-75
2022/04/25 00:51:56;;;;;;;;;;;9.50;99.90;;;;;;5158082;27;19914;-75
2022/04/25 00:54:22;;;;;;;;;;;9.50;99.90;;;;;;5138684;27;20356;-75
2022/04/25 00:56:49;;;;;;;;;;;9.40;99.90;;;;;;5156664;27;19919;-75
2022/04/25 00:59:18;;;;;;;;;;;9.50;99.90;;;;;;5155711;27;19907;-75
2022/04/25 01:01:44;;;;;;;;;;;9.50;99.90;;;;;;5156491;27;19907;-75
2022/04/25 01:04:10;;;;;;;;;;;9.50;99.90;;;;;;5155808;27;20382;-75
2022/04/25 01:06:36;;;;;;;;;;;9.40;99.90;;;;;;5156103;27;19907;-75
2022/04/25 01:09:01;;;;;;;;;;;9.40;99.90;;;;;;5156045;27;19914;-75
2022/04/25 01:11:27;;;;;;;;;;;9.40;99.90;;;;;;5155430;27;19907;-75
2022/04/25 01:13:53;;;;;;;;;;;9.40;99.90;;;;;;5156018;27;20287;-75
2022/04/25 01:16:19;;;;;;;;;;;9.30;99.90;;;;;;5155450;27;19907;-75
2022/04/25 01:18:44;;;;;;;;;;;9.30;99.90;;;;;;5156424;27;19999;-75
2022/04/25 01:21:12;;;;;;;;;;;9.30;99.90;;;;;;5155746;27;19997;-75
2022/04/25 01:29:06;;;;;;;;;;;9.30;99.90;;;;;;5155793;27;19913;-75
2022/04/25 01:31:32;;;;;;;;;;;9.20;99.90;;;;;;5155693;27;19907;-75
2022/04/25 01:33:57;;;;;;;;;;;9.10;99.90;;;;;;5137385;27;19911;-73
2022/04/25 01:36:24;;;;;;;;;;;9.10;99.90;;;;;;5155221;27;20359;-75
2022/04/25 01:38:53;;;;;;;;;;;9.00;99.90;;;;;;5155656;27;20333;-75
2022/04/25 01:41:19;;;;;;;;;;;9.00;99.90;;;;;;5155203;27;19947;-75
2022/04/25 01:43:44;;;;;;;;;;;8.90;99.90;;;;;;5155761;27;19962;-75
2022/04/25 01:46:10;;;;;;;;;;;9.00;99.90;;;;;;5155030;27;19907;-75
2022/04/25 01:48:36;;;;;;;;;;;8.90;99.90;;;;;;5155006;27;20347;-75
2022/04/25 01:51:02;;;;;;;;;;;8.90;99.90;;;;;;5155569;27;19960;-74
2022/04/25 01:53:27;;;;;;;;;;;8.90;99.90;;;;;;5154745;27;19907;-75
2022/04/25 01:55:53;;;;;;;;;;;8.90;99.90;;;;;;5113908;27;968444;-75
2022/04/25 01:58:19;;;;;;;;;;;8.90;99.90;;;;;;5143367;27;19919;-75
2022/04/25 02:00:45;;;;;;;;;;;8.80;99.90;;;;;;5156290;27;20010;-75
2022/04/25 02:03:11;;;;;;;;;;;8.90;99.90;;;;;;5155905;27;19908;-75
2022/04/25 02:05:37;;;;;;;;;;;8.90;99.90;;;;;;5155728;27;19914;-75
2022/04/25 02:08:02;;;;;;;;;;;8.90;99.90;;;;;;5156256;27;19911;-75
2022/04/25 02:10:28;;;;;;;;;;;9.00;99.90;;;;;;5155485;27;19918;-75
2022/04/25 02:12:54;;;;;;;;;;;8.90;99.90;;;;;;5155948;27;19930;-75
2022/04/25 02:15:20;;;;;;;;;;;8.80;99.90;;;;;;5155658;27;19907;-74
2022/04/25 02:17:45;;;;;;;;;;;8.90;99.90;;;;;;5155906;27;20348;-75
2022/04/25 02:20:11;;;;;;;;;;;8.80;99.90;;;;;;5155886;27;20006;-75
2022/04/25 02:22:37;;;;;;;;;;;8.90;99.90;;;;;;5155609;27;19914;-75
2022/04/25 02:25:03;;;;;;;;;;;8.90;99.90;;;;;;5155214;27;19919;-74
2022/04/25 02:27:29;;;;;;;;;;;9.00;99.90;;;;;;5155377;27;19908;-75
2022/04/25 02:29:58;;;;;;;;;;;9.00;99.90;;;;;;5137370;27;19911;-75
2022/04/25 02:32:23;;;;;;;;;;;9.00;99.90;;;;;;5155280;27;19911;-75
2022/04/25 02:34:50;;;;;;;;;;;9.10;99.90;;;;;;5155882;27;19907;-74
2022/04/25 02:37:16;;;;;;;;;;;9.10;99.90;;;;;;5155312;27;19907;-75
2022/04/25 02:39:42;;;;;;;;;;;9.20;99.90;;;;;;5155692;27;19908;-75
2022/04/25 02:42:08;;;;;;;;;;;9.10;99.90;;;;;;5155502;27;19914;-75
2022/04/25 02:44:33;;;;;;;;;;;9.20;99.90;;;;;;5154956;27;19919;-75
2022/04/25 02:46:59;;;;;;;;;;;9.20;99.90;;;;;;5155591;27;20306;-75
2022/04/25 02:49:24;;;;;;;;;;;9.30;99.90;;;;;;5154721;27;19911;-75
2022/04/25 02:51:50;;;;;;;;;;;9.30;99.90;;;;;;5155440;27;19907;-75
2022/04/25 02:54:15;;;;;;;;;;;9.30;99.90;;;;;;5155253;27;19950;-75
2022/04/25 02:56:41;;;;;;;;;;;9.40;99.90;;;;;;5155355;27;20275;-75
2022/04/25 02:59:07;;;;;;;;;;;9.40;99.90;;;;;;5155244;27;19956;-75
2022/04/25 03:01:33;;;;;;;;;;;9.30;99.90;;;;;;5154409;27;20398;-75
2022/04/25 03:03:58;;;;;;;;;;;9.20;99.90;;;;;;5155162;27;19915;-75
2022/04/25 03:06:24;;;;;;;;;;;9.30;99.90;;;;;;5154683;27;20303;-75
2022/04/25 03:08:49;;;;;;;;;;;9.30;99.90;;;;;;5155282;27;19914;-75
2022/04/25 03:11:15;;;;;;;;;;;9.30;99.90;;;;;;5154908;27;20284;-75
2022/04/25 03:13:41;;;;;;;;;;;9.30;99.90;;;;;;5154628;27;19946;-75
2022/04/25 03:16:07;;;;;;;;;;;9.30;99.90;;;;;;5155222;27;19907;-75
2022/04/25 03:18:33;;;;;;;;;;;9.30;99.90;;;;;;5154218;27;19911;-75
2022/04/25 03:20:59;;;;;;;;;;;9.30;99.90;;;;;;5155057;27;19914;-75
2022/04/25 03:23:25;;;;;;;;;;;9.30;99.90;;;;;;5135843;27;19907;-75
2022/04/25 03:25:51;;;;;;;;;;;9.30;99.90;;;;;;5154854;27;19966;-74
2022/04/25 03:28:17;;;;;;;;;;;9.30;99.90;;;;;;5154801;27;19908;-75
2022/04/25 03:30:43;;;;;;;;;;;9.30;99.90;;;;;;5154506;27;19911;-75
2022/04/25 03:33:12;;;;;;;;;;;9.40;99.90;;;;;;5136278;27;19907;-75
2022/04/25 03:35:38;;;;;;;;;;;9.30;99.90;;;;;;5154115;27;19994;-75
2022/04/25 03:38:06;;;;;;;;;;;9.30;99.90;;;;;;5154911;27;19990;-75
2022/04/25 03:40:31;;;;;;;;;;;9.30;99.90;;;;;;5154192;27;19907;-75
2022/04/25 03:42:57;;;;;;;;;;;9.30;99.90;;;;;;5154568;27;19907;-75
2022/04/25 03:45:22;;;;;;;;;;;9.20;99.90;;;;;;5154095;27;20067;-75
2022/04/25 03:47:48;;;;;;;;;;;9.20;99.90;;;;;;5154547;27;20252;-75
2022/04/25 03:50:14;;;;;;;;;;;9.20;99.90;;;;;;5154541;27;19959;-75
2022/04/25 03:52:42;;;;;;;;;;;9.20;99.90;;;;;;5154004;27;19911;-75
2022/04/25 03:57:53;;;;;;;;;;;9.20;99.90;;;;;;5154646;27;19992;-75
2022/04/25 04:00:18;;;;;;;;;;;9.20;99.90;;;;;;5154558;27;19907;-75
2022/04/25 04:02:44;;;;;;;;;;;9.20;99.90;;;;;;5153928;27;19994;-75
2022/04/25 04:05:10;;;;;;;;;;;9.20;99.90;;;;;;5154525;27;19922;-75
2022/04/25 04:07:35;;;;;;;;;;;9.20;99.90;;;;;;5153526;27;19911;-74
2022/04/25 04:10:01;;;;;;;;;;;9.20;99.90;;;;;;5154219;27;19942;-74
2022/04/25 04:12:32;;;;;;;;;;;9.20;99.90;;;;;;5154097;27;19907;-75
2022/04/25 04:15:03;;;;;;;;;;;9.20;99.90;;;;;;5154107;27;19942;-75
2022/04/25 04:17:29;;;;;;;;;;;9.20;99.90;;;;;;5153485;27;19907;-75
2022/04/25 04:19:54;;;;;;;;;;;9.30;99.90;;;;;;5153964;27;19907;-74
2022/04/25 04:22:21;;;;;;;;;;;9.30;99.90;;;;;;5154018;27;20371;-75
2022/04/25 04:24:47;;;;;;;;;;;9.30;99.90;;;;;;5153775;27;19960;-75
2022/04/25 04:27:14;;;;;;;;;;;9.30;99.90;;;;;;5154026;27;19911;-75
2022/04/25 04:29:40;;;;;;;;;;;9.20;99.90;;;;;;5153495;27;19911;-75
2022/04/25 04:32:06;;;;;;;;;;;9.20;99.90;;;;;;5153972;27;20280;-75
2022/04/25 04:34:32;;;;;;;;;;;9.20;99.90;;;;;;5153638;27;19907;-75
2022/04/25 04:36:59;;;;;;;;;;;9.20;99.90;;;;;;5153990;27;20344;-75
2022/04/25 04:39:27;;;;;;;;;;;9.20;99.90;;;;;;5153204;27;20360;-75
2022/04/25 04:41:53;;;;;;;;;;;9.20;99.90;;;;;;5154133;27;20312;-75
2022/04/25 04:44:18;;;;;;;;;;;9.10;99.90;;;;;;5153546;27;19941;-75
2022/04/25 04:46:44;;;;;;;;;;;9.10;99.90;;;;;;5153009;27;19907;-75
2022/04/25 04:49:10;;;;;;;;;;;9.10;99.90;;;;;;5157211;27;19914;-75
2022/04/25 04:51:35;;;;;;;;;;;9.10;99.90;;;;;;5157340;27;19907;-75
2022/04/25 04:54:02;;;;;;;;;;;9.10;99.90;;;;;;5157131;27;20275;-75
2022/04/25 04:56:30;;;;;;;;;;;9.10;99.90;;;;;;5156965;27;20006;-75
2022/04/25 04:58:56;;;;;;;;;;;9.10;99.90;;;;;;5157514;27;20404;-75
2022/04/25 05:01:22;;;;;;;;;;;9.10;99.90;;;;;;5157583;27;19907;-75
2022/04/25 05:03:47;;;;;;;;;;;9.10;99.90;;;;;;5156585;27;19916;-75
2022/04/25 05:06:13;;;;;;;;;;;9.10;99.90;;;;;;5157582;27;19945;-75
2022/04/25 05:08:39;;;;;;;;;;;9.10;99.90;;;;;;5157032;27;19944;-75
2022/04/25 05:11:07;;;;;;;;;;;9.00;99.90;;;;;;5157512;27;20024;-75
2022/04/25 05:13:33;;;;;;;;;;;8.90;99.90;;;;;;5156791;27;19918;-75
2022/04/25 05:15:58;;;;;;;;;;;8.80;99.90;;;;;;5157392;27;19907;-75
2022/04/25 05:18:27;;;;;;;;;;;8.80;99.90;;;;;;5156993;27;19907;-75
2022/04/25 05:20:53;;;;;;;;;;;8.80;99.90;;;;;;5157145;27;19911;-75
2022/04/25 05:23:18;;;;;;;;;;;8.70;99.90;;;;;;5157061;27;19908;-75
2022/04/25 05:25:44;;;;;;;;;;;8.60;99.90;;;;;;5156519;27;19913;-75
2022/04/25 05:28:09;;;;;;;;;;;8.60;99.90;;;;;;5157115;27;20355;-75
2022/04/25 05:30:35;;;;;;;;;;;8.50;99.90;;;;;;5137828;27;19945;-75
2022/04/25 05:33:04;;;;;;;;;;;8.50;99.90;;;;;;5156940;27;19939;-75
2022/04/25 05:35:31;;;;;;;;;;;8.50;99.90;;;;;;5155743;27;19907;-75
2022/04/25 05:37:57;;;;;;;;;;;8.50;99.90;;;;;;5157009;27;20001;-74
2022/04/25 05:40:23;;;;;;;;;;;8.50;99.90;;;;;;5138140;27;19938;-74
2022/04/25 05:42:49;;;;;;;;;;;8.50;99.90;;;;;;5156152;27;19907;-75
2022/04/25 05:45:16;;;;;;;;;;;8.50;99.90;;;;;;5156812;27;20279;-75
2022/04/25 05:47:43;;;;;;;;;;;8.60;99.90;;;;;;5156528;27;19982;-74
2022/04/25 05:53:11;;;;;;;;;;;8.70;99.90;;;;;;5072207;28;19916;-74
2022/04/25 05:55:37;;;;;;;;;;;8.70;99.90;;;;;;5138301;27;19986;-75
2022/04/25 05:58:03;;;;;;;;;;;8.80;99.90;;;;;;5156525;27;19914;-74
2022/04/25 06:00:29;;;;;;;;;;;8.90;99.90;;;;;;5136274;27;20373;-75
2022/04/25 06:02:57;;;;;;;;;;;9.00;99.90;;;;;;5156184;27;19908;-75
2022/04/25 06:05:26;;;;;;;;;;;9.00;99.90;;;;;;5156353;27;19926;-75
2022/04/25 06:07:52;;;;;;;;;;;9.00;99.90;;;;;;5155585;27;19915;-75
2022/04/25 06:10:18;;;;;;;;;;;9.10;99.90;;;;;;5156052;27;19908;-75
2022/04/25 06:12:47;;;;;;;;;;;9.10;99.90;;;;;;5155530;27;19908;-75
2022/04/25 06:15:12;;;;;;;;;;;9.10;99.90;;;;;;5156061;27;19911;-75
2022/04/25 06:17:38;;;;;;;;;;;9.10;99.90;;;;;;5155567;27;19914;-75
2022/04/25 06:20:05;;;;;;;;;;;9.10;99.90;;;;;;5156079;27;20267;-75
2022/04/25 06:22:31;;;;;;;;;;;9.10;99.90;;;;;;5137104;27;20370;-75
2022/04/25 06:24:56;;;;;;;;;;;9.10;99.90;;;;;;5155970;27;19950;-75
2022/04/25 06:27:22;;;;;;;;;;;9.20;99.90;;;;;;5155946;27;20408;-74
2022/04/25 06:29:47;;;;;;;;;;;9.30;99.90;;;;;;5136474;27;20006;-75
2022/04/25 06:32:13;;;;;;;;;;;9.30;99.90;;;;;;5155019;27;20026;-75
2022/04/25 06:34:42;;;;;;;;;;;9.30;99.90;;;;;;5154742;27;19922;-75
2022/04/25 06:37:07;;;;;;;;;;;9.40;99.90;;;;;;5155498;27;20299;-75
2022/04/25 06:39:33;;;;;;;;;;;9.40;99.90;;;;;;5154634;27;20006;-75
2022/04/25 06:41:59;;;;;;;;;;;9.40;99.90;;;;;;5155566;27;19914;-75
2022/04/25 06:44:25;;;;;;;;;;;9.40;99.90;;;;;;5154805;27;19915;-75
2022/04/25 06:46:50;;;;;;;;;;;9.40;99.90;;;;;;5154757;27;19918;-75
2022/04/25 06:49:25;;;;;;;;;;;9.40;99.90;;;;;;5155875;27;20320;-76
2022/04/25 06:51:52;;;;;;;;;;;9.50;99.90;;;;;;5154301;27;20299;-75
2022/04/25 06:54:18;;;;;;;;;;;9.50;99.90;;;;;;5155049;27;20039;-75
2022/04/25 06:56:43;;;;;;;;;;;9.60;99.90;;;;;;5154894;27;20021;-75
2022/04/25 06:59:09;;;;;;;;;;;9.70;99.90;;;;;;5155396;27;20276;-75
2022/04/25 07:01:36;;;;;;;;;;;9.70;99.90;;;;;;5154384;27;19907;-76
2022/04/25 07:04:01;;;;;;;;;;;9.70;99.90;;;;;;5155021;27;19919;-74
2022/04/25 07:06:27;;;;;;;;;;;9.80;99.90;;;;;;5154737;27;19907;-75
2022/04/25 07:08:52;;;;;;;;;;;9.90;99.90;;;;;;5154816;27;19953;-75
2022/04/25 07:11:18;;;;;;;;;;;10.00;99.90;;;;;;5154521;27;20032;-75
2022/04/25 07:13:45;;;;;;;;;;;10.20;99.90;;;;;;5154521;27;19911;-75
2022/04/25 07:16:14;;;;;;;;;;;10.20;99.90;;;;;;5154990;27;19907;-73
2022/04/25 07:18:39;;;;;;;;;;;10.40;99.90;;;;;;5154206;27;20010;-75
2022/04/25 07:28:48;;;;;;;;;;;10.60;99.90;;;;;;5155113;27;19997;-75
2022/04/25 07:29:19;;;;;;;;;;;10.60;99.90;;;;;;5154316;27;19914;-75
2022/04/25 07:31:45;;;;;;;;;;;10.50;99.90;;;;;;5153858;27;19907;-75
2022/04/25 07:34:10;;;;;;;;;;;10.40;99.90;;;;;;5147620;27;20006;-75
2022/04/25 07:36:36;;;;;;;;;;;10.50;99.90;;;;;;5140977;27;19913;-75
2022/04/25 07:39:04;;;;;;;;;;;10.50;99.90;;;;;;5153762;27;19914;-75
2022/04/25 07:41:30;;;;;;;;;;;10.50;99.90;;;;;;5153487;27;20374;-76
2022/04/25 07:43:56;;;;;;;;;;;10.60;99.90;;;;;;5153489;27;19915;-76
2022/04/25 07:46:25;;;;;;;;;;;10.60;99.90;;;;;;5152750;27;19914;-75
2022/04/25 07:48:51;;;;;;;;;;;10.70;99.90;;;;;;5152797;27;20328;-75
2022/04/25 07:51:16;;;;;;;;;;;10.90;99.90;;;;;;5153683;27;19989;-75
2022/04/25 07:53:42;;;;;;;;;;;11.10;99.90;;;;;;5153333;27;19932;-75
2022/04/25 07:56:08;;;;;;;;;;;11.10;99.90;;;;;;5153771;27;20275;-75
2022/04/25 07:58:34;;;;;;;;;;;11.30;99.90;;;;;;5153628;27;19995;-75
2022/04/25 08:01:00;;;;;;;;;;;11.20;99.90;;;;;;5153515;27;19980;-73
2022/04/25 08:03:26;;;;;;;;;;;11.30;99.90;;;;;;5154057;27;19911;-73
2022/04/25 08:05:52;;;;;;;;;;;11.00;99.90;;;;;;5153645;27;19960;-75
2022/04/25 08:08:17;;;;;;;;;;;10.70;99.90;;;;;;5153048;27;19911;-73
2022/04/25 08:10:43;;;;;;;;;;;10.60;99.90;;;;;;5153429;27;19917;-73
2022/04/25 08:18:37;;;;;;;;;;;11.30;99.90;;;;;;5153335;27;19956;-73
2022/04/25 08:21:03;;;;;;;;;;;11.60;99.90;;;;;;5153546;27;19911;-75
2022/04/25 08:23:28;;;;;;;;;;;11.90;99.90;;;;;;5156057;27;19960;-74
2022/04/25 08:25:54;;;;;;;;;;;11.70;99.90;;;;;;5157102;27;20252;-74
2022/04/25 08:28:20;;;;;;;;;;;11.70;99.90;;;;;;5156719;27;19907;-73
2022/04/25 08:30:46;;;;;;;;;;;11.80;99.90;;;;;;5138173;27;19907;-74
2022/04/25 08:33:12;;;;;;;;;;;11.70;99.90;;;;;;5157259;27;19907;-74
2022/04/25 08:35:38;;;;;;;;;;;11.70;99.90;;;;;;5138995;27;20386;-74
2022/04/25 08:38:04;;;;;;;;;;;11.60;99.90;;;;;;5156441;27;19911;-75
2022/04/25 08:40:30;;;;;;;;;;;11.80;99.90;;;;;;5157723;27;20009;-75
2022/04/25 08:42:57;;;;;;;;;;;11.90;99.90;;;;;;5157089;27;19954;-74
2022/04/25 08:45:23;;;;;;;;;;;11.80;99.90;;;;;;5138749;27;20370;-74
2022/04/25 08:47:51;;;;;;;;;;;11.60;99.90;;;;;;5157010;27;19907;-75
2022/04/25 08:50:17;;;;;;;;;;;11.70;99.90;;;;;;5141701;27;19912;-75
2022/04/25 08:52:43;;;;;;;;;;;11.80;99.90;;;;;;5135690;27;19935;-75
2022/04/25 08:55:09;;;;;;;;;;;11.80;99.90;;;;;;5136476;27;20010;-75
2022/04/25 08:57:38;;;;;;;;;;;11.90;99.90;;;;;;5116961;27;19965;-75
2022/04/25 09:00:04;;;;;;;;;;;11.90;99.90;;;;;;5135657;27;20451;-75
2022/04/25 09:02:30;;;;;;;;;;;11.80;99.90;;;;;;5136290;27;20356;-75
2022/04/25 09:04:56;;;;;;;;;;;12.10;99.90;;;;;;5131781;27;19960;-76
2022/04/25 09:07:22;;;;;;;;;;;12.40;99.90;;;;;;5113092;27;19952;-75
2022/04/25 09:09:48;;;;;;;;;;;12.50;99.90;;;;;;5116419;27;19908;-76
2022/04/25 09:12:14;;;;;;;;;;;12.50;99.90;;;;;;5136111;27;19969;-75
2022/04/25 09:14:41;;;;;;;;;;;12.60;99.90;;;;;;5134898;27;20249;-76
2022/04/25 09:17:07;;;;;;;;;;;12.40;99.90;;;;;;5135592;27;19907;-76
2022/04/25 09:19:33;;;;;;;;;;;11.90;99.90;;;;;;5135808;27;19932;-76
2022/04/25 09:21:58;;;;;;;;;;;12.10;99.90;;;;;;5135635;27;19907;-76
2022/04/25 09:24:25;;;;;;;;;;;12.10;99.90;;;;;;5135782;27;20340;-76
2022/04/25 09:26:52;;;;;;;;;;;12.20;99.90;;;;;;5134323;27;19907;-77
2022/04/25 09:29:25;;;;;;;;;;;12.30;99.90;;;;;;5136053;27;19911;-76
2022/04/25 09:31:51;;;;;;;;;;;12.40;99.90;;;;;;5135334;27;19911;-76
2022/04/25 09:34:59;;;;;;;;;;;12.30;99.90;;;;;;5135588;27;19907;-76
2022/04/25 09:37:02;;;;;;;;;;;12.10;99.90;;;;;;5134297;27;20102;-76
2022/04/25 09:39:30;;;;;;;;;;;12.40;99.90;;;;;;5135428;27;20477;-76
2022/04/25 09:41:57;;;;;;;;;;;12.50;99.90;;;;;;5134643;27;19907;-76
2022/04/25 09:44:23;;;;;;;;;;;12.40;99.90;;;;;;5135301;27;19915;-76
2022/04/25 09:46:49;;;;;;;;;;;12.60;99.90;;;;;;5134545;27;20345;-76
2022/04/25 09:49:20;;;;;;;;;;;12.50;99.90;;;;;;5134952;27;19907;-76
2022/04/25 09:51:59;;;;;;;;;;;12.40;99.90;;;;;;5135012;27;19995;-76
2022/04/25 09:54:25;;;;;;;;;;;12.40;99.90;;;;;;5135042;27;19914;-76
2022/04/25 09:56:51;;;;;;;;;;;12.20;99.90;;;;;;5134857;27;19923;-76
2022/04/25 09:59:18;;;;;;;;;;;12.20;99.90;;;;;;5135073;27;20257;-76
2022/04/25 10:01:45;;;;;;;;;;;12.20;99.90;;;;;;5135143;27;20010;-76
2022/04/25 10:04:31;;;;;;;;;;;12.10;99.90;;;;;;5135124;27;19941;-76
2022/04/25 10:06:59;;;;;;;;;;;12.00;99.90;;;;;;5134022;27;19986;-76
2022/04/25 10:09:26;;;;;;;;;;;12.30;99.90;;;;;;5135111;27;19908;-76
2022/04/25 10:11:54;;;;;;;;;;;12.40;99.90;;;;;;5134284;27;20391;-76
2022/04/25 10:14:20;;;;;;;;;;;12.40;99.90;;;;;;5135173;27;20358;-75
2022/04/25 10:16:46;;;;;;;;;;;12.20;99.90;;;;;;5134648;27;19907;-75
2022/04/25 10:19:13;;;;;;;;;;;12.10;99.90;;;;;;5135035;27;20003;-76
2022/04/25 10:21:39;;;;;;;;;;;11.80;99.90;;;;;;5134513;27;19958;-76
2022/04/25 10:24:06;;;;;;;;;;;11.90;99.90;;;;;;5134175;27;19920;-76
2022/04/25 10:26:31;;;;;;;;;;;11.80;99.90;;;;;;5134183;27;20006;-75
2022/04/25 10:29:01;;;;;;;;;;;11.80;99.90;;;;;;5133459;27;20480;-76
2022/04/25 10:31:41;;;;;;;;;;;11.50;99.90;;;;;;5133982;27;19908;-75
2022/04/25 10:34:07;;;;;;;;;;;11.50;99.90;;;;;;5133906;27;19908;-76
2022/04/25 10:36:38;;;;;;;;;;;11.60;99.90;;;;;;5134786;27;19994;-76
2022/04/25 10:39:13;;;;;;;;;;;11.60;99.90;;;;;;5134070;27;19911;-76
2022/04/25 10:44:44;;;;;;;;;;;11.50;99.90;;;;;;5133927;27;19923;-76
2022/04/25 10:47:17;;;;;;;;;;;11.60;99.90;;;;;;5133872;27;19914;-76
2022/04/25 10:49:44;;;;;;;;;;;11.70;99.90;;;;;;5134238;27;19946;-76
2022/04/25 10:52:28;;;;;;;;;;;11.70;99.90;;;;;;5132832;27;19911;-76
2022/04/25 10:55:30;;;;;;;;;;;11.80;99.90;;;;;;5133567;27;19911;-76
2022/04/25 10:58:01;;;;;;;;;;;11.90;99.90;;;;;;5133625;27;19919;-76
2022/04/25 11:03:05;;;;;;;;;;;12.30;99.90;;;;;;5133569;27;19915;-76
2022/04/25 11:05:30;;;;;;;;;;;12.60;99.90;;;;;;5134000;27;19916;-77
2022/04/25 11:08:14;;;;;;;;;;;12.80;99.90;;;;;;5133546;27;20287;-77
2022/04/25 11:10:44;;;;;;;;;;;12.70;99.90;;;;;;5133865;27;20364;-77
2022/04/25 11:13:12;;;;;;;;;;;12.50;99.90;;;;;;5132318;27;20348;-77
2022/04/25 11:15:42;;;;;;;;;;;12.80;99.90;;;;;;5133858;27;19915;-76
2022/04/25 11:18:49;;;;;;;;;;;12.90;99.90;;;;;;5133209;27;20028;-76
2022/04/25 11:21:15;;;;;;;;;;;13.00;99.90;;;;;;5132376;27;19907;-76
2022/04/25 11:23:43;;;;;;;;;;;12.50;99.90;;;;;;5133563;27;19908;-76
2022/04/25 11:26:11;;;;;;;;;;;12.70;99.90;;;;;;5133110;27;20735;-76
2022/04/25 11:29:08;;;;;;;;;;;12.90;99.90;;;;;;5133662;27;20275;-76
2022/04/25 11:31:37;;;;;;;;;;;13.10;99.90;;;;;;5112523;27;19915;-76
2022/04/25 11:34:04;;;;;;;;;;;13.40;99.90;;;;;;5132900;27;19965;-76
2022/04/25 11:36:31;;;;;;;;;;;13.40;99.90;;;;;;5133559;27;19952;-76
2022/04/25 11:41:41;;;;;;;;;;;13.00;99.90;;;;;;5133539;27;19961;-76
2022/04/25 11:44:07;;;;;;;;;;;13.00;99.90;;;;;;5133047;27;19916;-76
2022/04/25 11:46:34;;;;;;;;;;;13.00;99.90;;;;;;5114878;28;19915;-77
2022/04/25 11:49:00;;;;;;;;;;;12.80;99.90;;;;;;5132600;27;19907;-77
2022/04/25 11:51:30;;;;;;;;;;;12.90;99.90;;;;;;5133253;28;19908;-77
2022/04/25 11:53:58;;;;;;;;;;;12.70;99.90;;;;;;5114377;28;19907;-76
2022/04/25 11:56:24;;;;;;;;;;;12.70;99.90;;;;;;5132962;27;19954;-76
2022/04/25 11:58:50;;;;;;;;;;;12.80;99.90;;;;;;5136713;27;19912;-76
2022/04/25 12:01:32;;;;;;;;;;;12.60;99.90;;;;;;5137084;27;19912;-76
2022/04/25 12:04:16;;;;;;;;;;;12.50;99.90;;;;;;5136439;27;19915;-77
2022/04/25 12:06:47;;;;;;;;;;;12.40;99.90;;;;;;5137555;27;20010;-76
2022/04/25 12:17:35;;;;;;;;;;;12.40;99.90;;;;;;5137371;27;20011;-76
2022/04/25 12:20:02;;;;;;;;;;;12.40;99.90;;;;;;5136843;27;19960;-77
2022/04/25 12:22:28;;;;;;;;;;;12.50;99.90;;;;;;5136469;27;19919;-76
2022/04/25 12:25:12;;;;;;;;;;;12.40;99.90;;;;;;5136111;27;20253;-76
2022/04/25 12:27:38;;;;;;;;;;;12.30;99.90;;;;;;5136966;27;19911;-76
2022/04/25 12:30:08;;;;;;;;;;;12.40;99.90;;;;;;5118101;27;19987;-76
2022/04/25 12:32:34;;;;;;;;;;;12.30;99.90;;;;;;5137095;27;19937;-76
2022/04/25 12:35:00;;;;;;;;;;;12.30;99.90;;;;;;5135890;27;19908;-76
2022/04/25 12:37:25;;;;;;;;;;;12.30;99.90;;;;;;5135495;27;19915;-77
2022/04/25 12:40:03;;;;;;;;;;;12.30;99.90;;;;;;5135537;27;19955;-76
2022/04/25 12:42:50;;;;;;;;;;;12.50;99.90;;;;;;5135459;27;20411;-75
2022/04/25 12:45:18;;;;;;;;;;;12.30;99.90;;;;;;5136150;27;19916;-75
2022/04/25 12:47:44;;;;;;;;;;;12.50;99.90;;;;;;5136331;27;20013;-76
2022/04/25 12:50:09;;;;;;;;;;;12.50;99.90;;;;;;5156462;27;19914;-75
2022/04/25 12:52:46;;;;;;;;;;;12.50;99.90;;;;;;5156775;27;19915;-76
2022/04/25 12:55:12;;;;;;;;;;;12.50;99.90;;;;;;5156752;27;19972;-76
2022/04/25 12:57:37;;;;;;;;;;;12.70;99.90;;;;;;5156700;27;19922;-75
2022/04/25 13:00:04;;;;;;;;;;;12.80;99.90;;;;;;5155561;27;20275;-75
2022/04/25 13:02:35;;;;;;;;;;;12.90;99.90;;;;;;5154829;27;20376;-76
2022/04/25 13:05:07;;;;;;;;;;;12.90;99.90;;;;;;5155076;27;20381;-76
2022/04/25 13:07:40;;;;;;;;;;;12.80;99.90;;;;;;5156281;27;19907;-76
2022/04/25 13:10:07;;;;;;;;;;;12.70;99.90;;;;;;5154509;27;19913;-77
2022/04/25 13:12:33;;;;;;;;;;;12.90;99.90;;;;;;5156624;27;19907;-76
2022/04/25 13:14:59;;;;;;;;;;;13.00;99.90;;;;;;5154640;27;19957;-76
2022/04/25 13:17:25;;;;;;;;;;;13.00;99.90;;;;;;5156421;27;19914;-77
2022/04/25 13:19:51;;;;;;;;;;;12.90;99.90;;;;;;5156532;27;20489;-77
2022/04/25 13:22:17;;;;;;;;;;;12.70;99.90;;;;;;5155972;27;19993;-78
2022/04/25 13:24:43;;;;;;;;;;;12.70;99.90;;;;;;5155680;27;20002;-77
2022/04/25 13:27:09;;;;;;;;;;;12.60;99.90;;;;;;5154949;27;19945;-78
2022/04/25 13:29:35;;;;;;;;;;;12.50;99.90;;;;;;5155673;27;19950;-78
2022/04/25 13:32:01;;;;;;;;;;;12.60;99.90;;;;;;5155306;27;19919;-77
2022/04/25 13:34:27;;;;;;;;;;;12.30;99.90;;;;;;5156212;27;19929;-77
2022/04/25 13:36:52;;;;;;;;;;;12.10;99.90;;;;;;5155925;27;19997;-76
2022/04/25 13:39:18;;;;;;;;;;;12.20;99.90;;;;;;5155212;27;19907;-77
2022/04/25 13:41:44;;;;;;;;;;;12.20;99.90;;;;;;5155714;27;19976;-77
2022/04/25 13:44:09;;;;;;;;;;;12.30;99.90;;;;;;5155913;27;19915;-78
2022/04/25 13:46:35;;;;;;;;;;;12.20;99.90;;;;;;5155039;27;20388;-76
2022/04/25 13:49:00;;;;;;;;;;;12.10;99.90;;;;;;5154510;27;19907;-77
2022/04/25 13:51:26;;;;;;;;;;;11.90;99.90;;;;;;5155333;27;19951;-76
2022/04/25 13:53:51;;;;;;;;;;;12.10;99.90;;;;;;5154842;27;19915;-77
2022/04/25 13:56:19;;;;;;;;;;;12.30;99.90;;;;;;5154321;27;19919;-76
2022/04/25 13:58:44;;;;;;;;;;;12.40;99.90;;;;;;5155134;27;20455;-77
2022/04/25 14:01:10;;;;;;;;;;;12.60;99.90;;;;;;5154051;27;19930;-77
2022/04/25 14:03:36;;;;;;;;;;;12.60;99.90;;;;;;5155195;27;20271;-77
2022/04/25 14:06:02;;;;;;;;;;;12.40;99.90;;;;;;5135353;27;19915;-77
2022/04/25 14:08:28;;;;;;;;;;;12.10;99.90;;;;;;5154916;27;19987;-76
2022/04/25 14:10:54;;;;;;;;;;;12.20;99.90;;;;;;5154825;27;20035;-76
2022/04/25 14:13:20;;;;;;;;;;;12.00;99.90;;;;;;5155022;27;19990;-78
2022/04/25 14:15:46;;;;;;;;;;;11.90;99.90;;;;;;5155438;27;19907;-77
2022/04/25 14:18:12;;;;;;;;;;;11.80;99.90;;;;;;5154678;27;19908;-77
2022/04/25 14:20:38;;;;;;;;;;;11.90;99.90;;;;;;5154213;27;19907;-77
2022/04/25 14:23:05;;;;;;;;;;;12.10;99.90;;;;;;5154261;27;19959;-77
2022/04/25 14:25:31;;;;;;;;;;;12.10;99.90;;;;;;5154573;27;19915;-77
2022/04/25 14:27:58;;;;;;;;;;;12.20;99.90;;;;;;5135706;27;19908;-77
2022/04/25 14:30:24;;;;;;;;;;;12.40;99.90;;;;;;5154427;27;20006;-77
2022/04/25 14:32:51;;;;;;;;;;;12.20;99.90;;;;;;5153939;27;19911;-77
2022/04/25 14:35:17;;;;;;;;;;;12.20;99.90;;;;;;5153564;27;20236;-76
2022/04/25 14:37:43;;;;;;;;;;;12.10;99.90;;;;;;5154695;27;19907;-76
2022/04/25 14:40:08;;;;;;;;;;;12.10;99.90;;;;;;5135374;27;19974;-76
2022/04/25 14:42:34;;;;;;;;;;;12.20;99.90;;;;;;5154940;27;19914;-76
2022/04/25 14:45:00;;;;;;;;;;;12.00;99.90;;;;;;5135787;27;19916;-76
2022/04/25 14:47:26;;;;;;;;;;;11.90;99.90;;;;;;5154280;27;20002;-76
2022/04/25 14:55:21;;;;;;;;;;;12.20;99.90;;;;;;5153891;27;19960;-77
2022/04/25 14:57:51;;;;;;;;;;;12.40;99.90;;;;;;5154681;27;19908;-76
2022/04/25 15:00:20;;;;;;;;;;;12.30;99.90;;;;;;5154196;27;19964;-75
2022/04/25 15:02:46;;;;;;;;;;;12.10;99.90;;;;;;5154315;27;20028;-76
2022/04/25 15:05:12;;;;;;;;;;;12.30;99.90;;;;;;5154400;27;20013;-76
2022/04/25 15:07:37;;;;;;;;;;;12.20;99.90;;;;;;5154689;27;19911;-75